Dapp, Canada
Current Conditions -  °F | °C
As of 5:00 PM on Tuesday 25 Nov 2014 (Local Time) from CZVL Reporting Station
Overcast Overcast  
Wind Chill: 16°   Ceiling: 1800
Heat Index: 16°   Visibility: 9mi
Dew Point: 12°   Wind: 3mph
Humidity: 86%   Direction: 50°NE
Pressure: 30.17"   Gusts: NA
Location:  54.35°N, 113.92°W
Report Text: CZVL 260000Z AUTO 05003KT 9SM OVC018 M09/M11 A3017 RMK SLP261
Loading
Personal Weather Stations






























Interactive Weather Map New forecast layout! Learn more

10-Day Weather Forecast

Advertisements
Track Severe Weather on mobile